createdAt,value
2016-07-14T00:00:57.828Z,13.52
2016-07-14T00:01:57.846Z,13.49
2016-07-14T00:02:58.591Z,13.6
2016-07-14T00:03:57.870Z,13.57
2016-07-14T00:04:57.915Z,13.68
2016-07-14T00:05:57.913Z,13.54
2016-07-14T00:06:57.933Z,13.67
2016-07-14T00:07:57.950Z,13.7
2016-07-14T00:08:57.964Z,13.65
2016-07-14T00:09:57.992Z,13.65
2016-07-14T00:10:57.993Z,13.63
2016-07-14T00:11:58.012Z,13.7
2016-07-14T00:12:58.031Z,13.68
2016-07-14T00:13:58.048Z,13.74
2016-07-14T00:14:58.062Z,13.85
2016-07-14T00:15:58.085Z,13.71
2016-07-14T00:16:58.094Z,13.68
2016-07-14T00:17:58.121Z,13.7
2016-07-14T00:18:58.139Z,13.72
2016-07-14T00:19:58.155Z,13.75
2016-07-14T00:20:58.170Z,13.75
2016-07-14T00:21:58.184Z,13.62
2016-07-14T00:22:58.203Z,13.74
2016-07-14T00:23:58.223Z,13.7
2016-07-14T00:24:58.261Z,13.71
2016-07-14T00:25:58.255Z,13.63
2016-07-14T00:26:58.280Z,13.72
2016-07-14T00:27:58.295Z,13.74
2016-07-14T00:28:58.313Z,13.75
2016-07-14T00:29:58.334Z,13.75
2016-07-14T00:30:58.348Z,13.71
2016-07-14T00:31:58.360Z,13.74
2016-07-14T00:32:58.378Z,13.72
2016-07-14T00:33:58.395Z,13.77
2016-07-14T00:34:58.416Z,13.92
2016-07-14T00:35:58.431Z,13.9
2016-07-14T00:36:58.450Z,13.96
2016-07-14T00:37:58.472Z,13.83
2016-07-14T00:38:58.484Z,13.9
2016-07-14T00:39:58.512Z,13.97
2016-07-14T00:40:58.526Z,14.04
2016-07-14T00:41:58.531Z,13.96
2016-07-14T00:42:58.562Z,13.97
2016-07-14T00:43:58.568Z,13.87
2016-07-14T00:44:58.597Z,13.79
2016-07-14T00:45:58.604Z,13.77
2016-07-14T00:46:58.627Z,13.78
2016-07-14T00:47:58.639Z,13.78
2016-07-14T00:48:58.665Z,13.72
2016-07-14T00:49:58.677Z,13.65
2016-07-14T00:50:58.691Z,13.72
2016-07-14T00:51:58.718Z,13.74
2016-07-14T00:52:58.733Z,13.72
2016-07-14T00:53:58.751Z,13.75
2016-07-14T00:54:58.756Z,13.77
2016-07-14T00:55:58.790Z,13.81
2016-07-14T00:56:58.802Z,13.81
2016-07-14T00:57:58.820Z,13.85
2016-07-14T00:58:58.829Z,13.92
2016-07-14T00:59:58.856Z,13.96
2016-07-14T01:00:58.867Z,13.99
2016-07-14T01:06:58.974Z,14.15
2016-07-14T01:07:59.000Z,14.17
2016-07-14T01:08:59.002Z,14.15
2016-07-14T01:09:59.028Z,14.2
2016-07-14T01:10:59.051Z,14.25
2016-07-14T01:11:59.064Z,14.17
2016-07-14T01:12:59.087Z,14.29
2016-07-14T01:13:59.094Z,14.28
2016-07-14T01:14:59.131Z,14.36
2016-07-14T01:15:59.131Z,14.2
2016-07-14T01:16:59.159Z,14.2
2016-07-14T01:17:59.169Z,14.22
2016-07-14T01:18:59.187Z,14.15
2016-07-14T01:19:59.200Z,14.08
2016-07-14T01:20:59.215Z,14.05
2016-07-14T01:21:59.249Z,14.04
2016-07-14T01:22:59.260Z,14.05
2016-07-14T01:23:59.279Z,14.17
2016-07-14T01:24:59.296Z,14.22
2016-07-14T01:25:59.309Z,14.22
2016-07-14T01:26:59.324Z,14.26
2016-07-14T01:27:59.350Z,14.2
2016-07-14T01:28:59.358Z,14.2
2016-07-14T01:29:59.382Z,14.32
2016-07-14T01:30:59.398Z,14.17
2016-07-14T01:31:59.417Z,14.3
2016-07-14T01:32:59.438Z,14.4
2016-07-14T01:33:59.454Z,14.3
2016-07-14T01:34:59.480Z,14.26
2016-07-14T01:35:59.482Z,14.29
2016-07-14T01:36:59.502Z,14.28
2016-07-14T01:37:59.524Z,14.4
2016-07-14T01:38:59.544Z,14.29
2016-07-14T01:39:59.559Z,14.25
2016-07-14T01:40:59.580Z,14.25
2016-07-14T01:41:59.594Z,14.07
2016-07-14T01:42:59.614Z,14.22
2016-07-14T01:43:59.646Z,14.17
2016-07-14T01:44:59.641Z,14.25
2016-07-14T01:45:59.669Z,14.29
2016-07-14T01:46:59.716Z,14.33
2016-07-14T01:47:59.701Z,14.28
2016-07-14T01:48:59.725Z,14.29
2016-07-14T01:49:59.745Z,14.29
2016-07-14T01:50:59.755Z,14.29
2016-07-14T01:51:59.776Z,14.29
2016-07-14T01:52:59.829Z,14.3
2016-07-14T01:53:59.816Z,14.45
2016-07-14T01:54:59.928Z,14.35
2016-07-14T01:55:59.845Z,14.26
2016-07-14T01:56:59.942Z,14.33
2016-07-14T01:57:59.877Z,14.22
2016-07-14T01:58:59.947Z,14.33
2016-07-14T01:59:59.915Z,14.29
2016-07-14T02:00:59.942Z,14.28
2016-07-14T02:01:59.948Z,14.3
2016-07-14T02:03:00.036Z,14.23
2016-07-14T02:03:59.987Z,14.2
2016-07-14T02:05:00.043Z,14.22
2016-07-14T02:06:00.028Z,14.22
2016-07-14T02:07:00.042Z,14.23
2016-07-14T02:08:00.059Z,14.1
2016-07-14T02:09:00.075Z,14.15
2016-07-14T02:10:00.097Z,14.12
2016-07-14T02:11:00.115Z,14.14
2016-07-14T02:12:00.130Z,14.2
2016-07-14T02:13:00.161Z,14.18
2016-07-14T02:14:00.160Z,14.18
2016-07-14T02:15:00.183Z,14.17
2016-07-14T02:16:00.208Z,14.14
2016-07-14T02:17:00.213Z,14.12
2016-07-14T02:18:00.242Z,14.15
2016-07-14T02:19:00.244Z,14.22
2016-07-14T02:20:00.278Z,14.25
2016-07-14T02:21:00.280Z,14.18
2016-07-14T02:22:00.309Z,14.17
2016-07-14T02:23:00.325Z,14.17
2016-07-14T02:24:00.342Z,14.17
2016-07-14T02:25:00.363Z,14.18
2016-07-14T02:26:00.375Z,14.12
2016-07-14T02:27:00.403Z,14.17
2016-07-14T02:28:00.408Z,14.25
2016-07-14T02:29:00.430Z,14.2
2016-07-14T02:30:00.450Z,14.18
2016-07-14T02:31:00.463Z,14.26
2016-07-14T02:32:00.486Z,14.15
2016-07-14T02:33:00.502Z,14.17
2016-07-14T02:34:00.520Z,14.2
2016-07-14T02:35:00.535Z,14.22
2016-07-14T02:36:00.561Z,14.14
2016-07-14T02:37:00.578Z,14.04
2016-07-14T02:38:00.598Z,14.12
2016-07-14T02:39:00.611Z,14.1
2016-07-14T02:40:00.627Z,14.14
2016-07-14T02:41:00.648Z,13.99
2016-07-14T02:42:00.666Z,14.12
2016-07-14T02:43:00.679Z,14.05
2016-07-14T02:44:00.714Z,14.22
2016-07-14T02:45:00.713Z,14.14
2016-07-14T02:46:00.739Z,14.11
2016-07-14T02:47:00.745Z,14.22
2016-07-14T02:48:00.773Z,14.22
2016-07-14T02:49:00.787Z,14.17
2016-07-14T02:50:00.811Z,14.18
2016-07-14T02:51:00.824Z,14.18
2016-07-14T02:52:00.838Z,14.2
2016-07-14T02:53:00.866Z,14.17
2016-07-14T02:54:00.879Z,14.22
2016-07-14T02:55:00.888Z,14.25
2016-07-14T02:56:00.915Z,14.12
2016-07-14T02:57:00.920Z,14.14
2016-07-14T02:58:00.955Z,14.17
2016-07-14T02:59:00.959Z,14.11
2016-07-14T03:00:00.986Z,14.04
2016-07-14T03:01:00.993Z,14
2016-07-14T03:02:01.022Z,14
2016-07-14T03:03:01.038Z,14
2016-07-14T03:04:01.063Z,13.97
2016-07-14T03:05:01.070Z,13.89
2016-07-14T03:06:01.094Z,13.87
2016-07-14T03:07:01.095Z,13.95
2016-07-14T03:08:01.116Z,13.99
2016-07-14T03:09:01.137Z,13.93
2016-07-14T03:10:01.166Z,13.89
2016-07-14T03:11:01.170Z,13.96
2016-07-14T03:12:01.203Z,13.86
2016-07-14T03:13:01.216Z,13.85
2016-07-14T03:14:01.236Z,13.87
2016-07-14T03:15:01.253Z,13.89
2016-07-14T03:16:01.258Z,13.87
2016-07-14T03:17:01.290Z,13.79
2016-07-14T03:18:01.299Z,13.7
2016-07-14T03:19:01.313Z,13.72
2016-07-14T03:20:01.337Z,13.86
2016-07-14T03:21:01.354Z,13.75
2016-07-14T03:22:01.376Z,13.72
2016-07-14T03:23:01.389Z,13.81
2016-07-14T03:24:01.413Z,13.72
2016-07-14T03:25:01.418Z,13.71
2016-07-14T03:26:01.453Z,13.67
2016-07-14T03:27:01.460Z,13.71
2016-07-14T03:28:01.481Z,13.74
2016-07-14T03:29:01.510Z,13.75
2016-07-14T03:30:01.511Z,13.75
2016-07-14T03:31:01.528Z,13.78
2016-07-14T03:32:01.548Z,13.77
2016-07-14T03:33:01.565Z,13.71
2016-07-14T03:34:01.598Z,13.86
2016-07-14T03:35:01.597Z,13.83
2016-07-14T03:36:01.615Z,13.71
2016-07-14T03:37:01.633Z,13.72
2016-07-14T03:38:01.658Z,13.74
2016-07-14T03:39:01.675Z,13.83
2016-07-14T03:40:01.691Z,13.83
2016-07-14T03:41:01.710Z,13.79
2016-07-14T03:42:01.726Z,13.85
2016-07-14T03:43:01.741Z,13.85
2016-07-14T03:44:01.757Z,13.87
2016-07-14T03:45:01.769Z,13.81
2016-07-14T03:46:01.801Z,13.87
2016-07-14T03:47:01.805Z,13.9
2016-07-14T03:48:01.826Z,13.89
2016-07-14T03:49:01.844Z,13.87
2016-07-14T03:50:01.868Z,13.81
2016-07-14T03:51:01.873Z,13.79
2016-07-14T03:52:01.899Z,13.72
2016-07-14T03:53:01.907Z,13.78
2016-07-14T03:54:01.937Z,13.89
2016-07-14T03:55:01.959Z,13.83
2016-07-14T03:56:01.980Z,13.87
2016-07-14T03:57:01.986Z,13.86
2016-07-14T03:58:02.003Z,13.85
2016-07-14T03:59:02.017Z,13.86
2016-07-14T04:00:02.037Z,13.81
2016-07-14T04:01:02.092Z,13.85
2016-07-14T04:02:02.074Z,13.83
2016-07-14T04:03:02.094Z,13.87
2016-07-14T04:04:02.106Z,13.81
2016-07-14T04:05:02.118Z,13.87
2016-07-14T04:06:02.147Z,13.85
2016-07-14T04:07:02.211Z,13.89
2016-07-14T04:08:02.174Z,13.83
2016-07-14T04:09:02.242Z,13.83
2016-07-14T04:10:02.217Z,13.83
2016-07-14T04:11:02.293Z,13.81
2016-07-14T04:12:02.257Z,13.87
2016-07-14T04:13:02.301Z,13.81
2016-07-14T04:14:02.286Z,13.77
2016-07-14T04:15:02.347Z,13.79
2016-07-14T04:16:02.321Z,13.78
2016-07-14T04:17:02.391Z,13.77
2016-07-14T04:18:02.357Z,13.75
2016-07-14T04:19:02.395Z,13.74
2016-07-14T04:20:02.388Z,13.74
2016-07-14T04:21:02.435Z,13.75
2016-07-14T04:22:02.431Z,13.74
2016-07-14T04:23:02.438Z,13.85
2016-07-14T04:24:02.466Z,13.79
2016-07-14T04:25:02.478Z,13.79
2016-07-14T04:26:02.501Z,13.75
2016-07-14T04:27:02.517Z,13.74
2016-07-14T04:28:02.532Z,13.72
2016-07-14T04:29:02.555Z,13.87
2016-07-14T04:30:02.564Z,13.74
2016-07-14T04:31:02.586Z,13.68
2016-07-14T04:32:02.608Z,13.72
2016-07-14T04:33:02.619Z,13.7
2016-07-14T04:34:02.636Z,13.71
2016-07-14T04:35:02.654Z,13.74
2016-07-14T04:36:02.669Z,13.71
2016-07-14T04:37:02.686Z,13.62
2016-07-14T04:38:02.712Z,13.62
2016-07-14T04:39:02.721Z,13.65
2016-07-14T04:40:02.750Z,13.56
2016-07-14T04:41:02.757Z,13.54
2016-07-14T04:42:02.774Z,13.67
2016-07-14T04:43:02.799Z,13.7
2016-07-14T04:44:02.817Z,13.67
2016-07-14T04:45:02.829Z,13.65
2016-07-14T04:46:02.842Z,13.68
2016-07-14T04:47:02.862Z,13.6
2016-07-14T04:48:02.891Z,13.56
2016-07-14T04:49:02.905Z,13.57
2016-07-14T04:50:02.922Z,13.59
2016-07-14T04:51:02.929Z,13.54
2016-07-14T04:52:02.951Z,13.56
2016-07-14T04:53:02.980Z,13.54
2016-07-14T04:54:02.993Z,13.59
2016-07-14T04:55:03.004Z,13.54
2016-07-14T04:56:03.019Z,13.65
2016-07-14T04:57:03.041Z,13.63
2016-07-14T04:58:03.056Z,13.59
2016-07-14T04:59:03.083Z,13.68
2016-07-14T05:00:03.094Z,13.7
2016-07-14T05:01:03.115Z,13.67
2016-07-14T05:02:03.131Z,13.7
2016-07-14T05:03:03.144Z,13.72
2016-07-14T05:04:03.170Z,13.57
2016-07-14T05:05:03.191Z,13.53
2016-07-14T05:06:03.199Z,13.62
2016-07-14T05:07:03.217Z,13.7
2016-07-14T05:08:03.228Z,13.62
2016-07-14T05:09:03.257Z,13.72
2016-07-14T05:10:03.269Z,13.72
2016-07-14T05:11:03.292Z,13.72
2016-07-14T05:12:03.302Z,13.7
2016-07-14T05:13:03.319Z,13.77
2016-07-14T05:14:03.353Z,13.78
2016-07-14T05:15:03.364Z,13.87
2016-07-14T05:16:03.374Z,13.85
2016-07-14T05:17:03.389Z,13.93
2016-07-14T05:18:03.406Z,13.93
2016-07-14T05:19:03.430Z,13.97
2016-07-14T05:20:03.443Z,13.97
2016-07-14T05:21:03.463Z,13.99
2016-07-14T05:22:03.477Z,14.03
2016-07-14T05:23:03.502Z,14.04
2016-07-14T05:24:03.509Z,14.03
2016-07-14T05:25:03.532Z,14
2016-07-14T05:26:03.557Z,14.1
2016-07-14T05:27:03.563Z,14
2016-07-14T05:28:03.586Z,14.05
2016-07-14T05:29:03.596Z,14.07
2016-07-14T05:30:03.630Z,14
2016-07-14T05:31:03.642Z,14.14
2016-07-14T05:32:03.657Z,14.11
2016-07-14T05:33:03.677Z,14.18
2016-07-14T05:34:03.689Z,14.32
2016-07-14T05:35:03.717Z,14.3
2016-07-14T05:36:03.726Z,14.3
2016-07-14T05:37:03.743Z,14.3
2016-07-14T05:38:03.763Z,14.3
2016-07-14T05:39:03.789Z,14.32
2016-07-14T05:40:03.803Z,14.26
2016-07-14T05:41:03.822Z,14.44
2016-07-14T05:42:03.842Z,14.44
2016-07-14T05:43:03.854Z,14.48
2016-07-14T05:44:03.875Z,14.48
2016-07-14T05:45:03.883Z,14.59
2016-07-14T05:46:03.911Z,14.44
2016-07-14T05:47:03.919Z,14.53
2016-07-14T05:48:03.961Z,14.66
2016-07-14T05:49:03.963Z,14.77
2016-07-14T05:50:03.978Z,14.86
2016-07-14T05:51:04.009Z,15
2016-07-14T05:52:04.009Z,15.17
2016-07-14T05:53:04.030Z,15.33
2016-07-14T05:54:04.051Z,15.4
2016-07-14T05:55:04.075Z,15.35
2016-07-14T05:56:04.100Z,15.46
2016-07-14T05:57:04.111Z,15.44
2016-07-14T05:58:04.122Z,15.37
2016-07-14T05:59:04.140Z,15.33
2016-07-14T06:00:04.162Z,15.19
2016-07-14T06:01:04.178Z,15.11
2016-07-14T06:02:04.197Z,15.18
2016-07-14T06:03:04.215Z,15.19
2016-07-14T06:04:04.232Z,15.17
2016-07-14T06:05:04.260Z,15.15
2016-07-14T06:06:04.280Z,15.29
2016-07-14T06:07:04.285Z,15.24
2016-07-14T06:08:04.307Z,15.24
2016-07-14T06:09:04.323Z,15.09
2016-07-14T06:10:04.344Z,15.07
2016-07-14T06:11:04.362Z,15.09
2016-07-14T06:12:04.384Z,15.06
2016-07-14T06:13:04.392Z,15.17
2016-07-14T06:14:04.440Z,15.18
2016-07-14T06:15:04.446Z,15.22
2016-07-14T06:16:04.454Z,15.29
2016-07-14T06:17:04.471Z,15.17
2016-07-14T06:18:04.486Z,15.21
2016-07-14T06:19:04.502Z,15.17
2016-07-14T06:20:04.530Z,15.28
2016-07-14T06:21:04.545Z,15.25
2016-07-14T06:22:04.552Z,15.49
2016-07-14T06:23:04.588Z,15.51
2016-07-14T06:24:04.598Z,15.46
2016-07-14T06:25:04.628Z,15.44
2016-07-14T06:26:04.640Z,15.36
2016-07-14T06:27:04.653Z,15.42
2016-07-14T06:28:04.681Z,15.39
2016-07-14T06:29:04.691Z,15.51
2016-07-14T06:30:04.712Z,15.67
2016-07-14T06:31:04.723Z,15.65
2016-07-14T06:32:04.745Z,15.8
2016-07-14T06:33:04.777Z,15.75
2016-07-14T06:34:04.787Z,15.82
2016-07-14T06:35:04.804Z,15.86
2016-07-14T06:36:04.833Z,15.67
2016-07-14T06:37:04.842Z,15.57
2016-07-14T06:38:04.860Z,15.28
2016-07-14T06:39:04.883Z,15.21
2016-07-14T06:40:04.905Z,15.21
2016-07-14T06:41:04.915Z,15.28
2016-07-14T06:42:04.933Z,15.36
2016-07-14T06:43:04.958Z,15.55
2016-07-14T06:44:04.974Z,15.62
2016-07-14T06:45:04.990Z,15.37
2016-07-14T06:46:05.010Z,15.28
2016-07-14T06:47:05.030Z,15.31
2016-07-14T06:48:05.049Z,15.25
2016-07-14T06:49:05.058Z,15.19
2016-07-14T06:50:05.088Z,15.21
2016-07-14T06:51:05.098Z,15.29
2016-07-14T06:52:05.127Z,15.31
2016-07-14T06:53:05.138Z,15.44
2016-07-14T06:54:05.160Z,15.52
2016-07-14T06:55:05.173Z,15.57
2016-07-14T06:56:05.193Z,15.75
2016-07-14T06:57:05.214Z,15.97
2016-07-14T06:58:05.238Z,16.02
2016-07-14T06:59:05.243Z,16.2
2016-07-14T07:00:05.269Z,16.38
2016-07-14T07:01:05.287Z,16.32
2016-07-14T07:02:05.325Z,16.13
2016-07-14T07:03:05.328Z,15.95
2016-07-14T07:04:05.344Z,15.75
2016-07-14T07:05:05.364Z,15.76
2016-07-14T07:06:05.389Z,15.82
2016-07-14T07:07:05.403Z,15.82
2016-07-14T07:08:05.426Z,15.92
2016-07-14T07:09:05.443Z,15.94
2016-07-14T07:10:05.470Z,16.1
2016-07-14T07:11:05.480Z,16.16
2016-07-14T07:12:05.494Z,16.23
2016-07-14T07:13:05.514Z,16.26
2016-07-14T07:14:05.534Z,16.17
2016-07-14T07:15:05.551Z,16.02
2016-07-14T07:16:05.572Z,15.91
2016-07-14T07:17:05.584Z,16.02
2016-07-14T07:18:05.610Z,15.91
2016-07-14T07:19:05.627Z,15.82
2016-07-14T07:20:05.646Z,15.88
2016-07-14T07:21:05.668Z,15.97
2016-07-14T07:22:05.691Z,15.92
2016-07-14T07:23:05.703Z,15.77
2016-07-14T07:24:05.727Z,15.64
2016-07-14T07:25:05.741Z,15.8
2016-07-14T07:26:05.760Z,16.1
2016-07-14T07:27:05.782Z,16.21
2016-07-14T07:28:05.799Z,16.15
2016-07-14T07:29:05.826Z,16.23
2016-07-14T07:30:05.833Z,16.26
2016-07-14T07:31:05.857Z,16.24
2016-07-14T07:32:05.875Z,16.24
2016-07-14T07:33:05.887Z,16.36
2016-07-14T07:34:05.916Z,16.43
2016-07-14T07:35:05.929Z,16.57
2016-07-14T07:36:05.955Z,16.42
2016-07-14T07:37:05.970Z,16.26
2016-07-14T07:38:05.994Z,16.32
2016-07-14T07:39:05.997Z,16.31
2016-07-14T07:40:06.035Z,16.56
2016-07-14T07:41:06.042Z,16.58
2016-07-14T07:42:06.069Z,16.75
2016-07-14T07:43:06.076Z,16.93
2016-07-14T07:44:06.098Z,17.08
2016-07-14T07:45:06.130Z,17.15
2016-07-14T07:46:06.141Z,17.34
2016-07-14T07:47:06.154Z,17.45
2016-07-14T07:48:06.182Z,17.63
2016-07-14T07:49:06.197Z,17.65
2016-07-14T07:50:06.225Z,17.59
2016-07-14T07:51:06.236Z,17.39
2016-07-14T07:52:06.263Z,17.23
2016-07-14T07:53:06.286Z,17.16
2016-07-14T07:54:06.299Z,17.15
2016-07-14T07:55:06.320Z,17.14
2016-07-14T07:56:06.336Z,17.05
2016-07-14T07:57:06.356Z,17.39
2016-07-14T07:58:06.374Z,17.49
2016-07-14T07:59:06.390Z,17.49
2016-07-14T08:00:06.417Z,17.45
2016-07-14T08:01:06.440Z,17.23
2016-07-14T08:02:06.449Z,17.22
2016-07-14T08:03:06.471Z,17.44
2016-07-14T08:04:06.494Z,17.68
2016-07-14T08:05:06.514Z,17.94
2016-07-14T08:06:06.537Z,17.97
2016-07-14T08:07:06.543Z,17.89
2016-07-14T08:08:06.574Z,17.82
2016-07-14T08:09:06.597Z,17.9
2016-07-14T08:10:06.606Z,17.94
2016-07-14T08:11:06.628Z,17.89
2016-07-14T08:12:06.655Z,17.71
2016-07-14T08:13:06.671Z,17.42
2016-07-14T08:14:06.686Z,17.2
2016-07-14T08:15:06.709Z,17.09
2016-07-14T08:16:06.727Z,16.93
2016-07-14T08:17:06.746Z,16.72
2016-07-14T08:18:06.784Z,16.64
2016-07-14T08:19:06.790Z,16.53
2016-07-14T08:20:06.812Z,16.33
2016-07-14T08:21:06.833Z,16.21
2016-07-14T08:22:06.841Z,16.21
2016-07-14T08:23:06.864Z,16.33
2016-07-14T08:24:06.873Z,16.54
2016-07-14T08:25:06.897Z,16.71
2016-07-14T08:26:06.924Z,17.06
2016-07-14T08:27:06.938Z,17.27
2016-07-14T08:28:06.962Z,17.44
2016-07-14T08:29:06.973Z,17.64
2016-07-14T08:30:06.996Z,17.57
2016-07-14T08:31:07.036Z,17.78
2016-07-14T08:32:07.039Z,17.95
2016-07-14T08:33:07.059Z,18.08
2016-07-14T08:34:07.074Z,18.2
2016-07-14T08:35:07.092Z,18.16
2016-07-14T08:36:07.116Z,18.07
2016-07-14T08:37:07.141Z,17.92
2016-07-14T08:38:07.156Z,17.98
2016-07-14T08:39:07.172Z,18.01
2016-07-14T08:40:07.193Z,18.19
2016-07-14T08:41:07.204Z,18.38
2016-07-14T08:42:07.237Z,18.45
2016-07-14T08:43:07.249Z,18.53
2016-07-14T08:44:07.281Z,18.29
2016-07-14T08:45:07.291Z,18.05
2016-07-14T08:46:07.316Z,17.92
2016-07-14T08:47:07.337Z,17.76
2016-07-14T08:48:07.353Z,17.8
2016-07-14T08:49:07.378Z,17.68
2016-07-14T08:50:07.381Z,17.41
2016-07-14T08:51:07.408Z,17.19
2016-07-14T08:52:07.431Z,17.01
2016-07-14T08:53:07.450Z,17.01
2016-07-14T08:54:07.471Z,16.9
2016-07-14T08:55:07.486Z,16.97
2016-07-14T08:56:07.508Z,17.01
2016-07-14T08:57:07.528Z,17.23
2016-07-14T08:58:07.553Z,17.49
2016-07-14T08:59:07.566Z,17.68
2016-07-14T09:00:07.599Z,17.89
2016-07-14T09:01:07.609Z,18.15
2016-07-14T09:02:07.624Z,18.22
2016-07-14T09:03:07.646Z,18.52
2016-07-14T09:04:07.671Z,18.68
2016-07-14T09:05:07.688Z,18.68
2016-07-14T09:06:07.700Z,18.62
2016-07-14T09:07:07.728Z,18.58
2016-07-14T09:08:07.754Z,18.63
2016-07-14T09:09:07.758Z,18.29
2016-07-14T09:10:07.780Z,18.03
2016-07-14T09:11:07.810Z,17.89
2016-07-14T09:12:07.819Z,17.76
2016-07-14T09:13:07.841Z,17.67
2016-07-14T09:14:07.855Z,17.72
2016-07-14T09:15:07.895Z,17.85
2016-07-14T09:16:07.908Z,17.97
2016-07-14T09:17:07.916Z,18.34
2016-07-14T09:18:07.934Z,18.47
2016-07-14T09:19:07.967Z,18.71
2016-07-14T09:20:07.980Z,18.78
2016-07-14T09:21:08.014Z,18.92
2016-07-14T09:22:08.011Z,18.95
2016-07-14T09:23:08.045Z,19.29
2016-07-14T09:24:08.061Z,19.54
2016-07-14T09:25:08.089Z,19.71
2016-07-14T09:26:08.103Z,19.7
2016-07-14T09:27:08.122Z,19.66
2016-07-14T09:28:08.146Z,19.66
2016-07-14T09:29:08.160Z,19.58
2016-07-14T09:30:08.189Z,19.4
2016-07-14T09:31:08.200Z,19.18
2016-07-14T09:32:08.234Z,19
2016-07-14T09:33:08.243Z,19.09
2016-07-14T09:34:08.265Z,19.02
2016-07-14T09:35:08.287Z,18.93
2016-07-14T09:36:08.316Z,18.7
2016-07-14T09:37:08.328Z,18.43
2016-07-14T09:38:08.347Z,18.38
2016-07-14T09:39:08.359Z,18.37
2016-07-14T09:40:08.397Z,18.18
2016-07-14T09:41:08.405Z,17.87
2016-07-14T09:42:08.428Z,17.65
2016-07-14T09:43:08.443Z,17.52
2016-07-14T09:44:08.471Z,17.6
2016-07-14T09:45:08.487Z,17.57
2016-07-14T09:46:08.503Z,17.46
2016-07-14T09:47:08.530Z,17.45
2016-07-14T09:48:08.550Z,17.42
2016-07-14T09:49:08.564Z,17.33
2016-07-14T09:50:08.586Z,17.39
2016-07-14T09:51:08.615Z,17.46
2016-07-14T09:52:08.619Z,17.65
2016-07-14T09:53:08.639Z,17.6
2016-07-14T09:54:08.662Z,17.7
2016-07-14T09:55:08.704Z,17.7
2016-07-14T09:56:08.701Z,17.68
2016-07-14T09:57:08.730Z,17.83
2016-07-14T09:58:08.736Z,17.85
2016-07-14T09:59:08.764Z,17.89
2016-07-14T10:00:08.786Z,17.92
2016-07-14T10:01:08.800Z,17.89
2016-07-14T10:02:08.825Z,17.98
2016-07-14T10:03:08.840Z,18.31
2016-07-14T10:04:08.861Z,18.58
2016-07-14T10:05:08.877Z,18.95
2016-07-14T10:06:08.908Z,19.3
2016-07-14T10:07:08.932Z,19.48
2016-07-14T10:08:08.949Z,19.74
2016-07-14T10:09:08.971Z,20.04
2016-07-14T10:10:08.979Z,20.19
2016-07-14T10:11:09.004Z,20.03
2016-07-14T10:12:09.020Z,20
2016-07-14T10:13:09.053Z,20.04
2016-07-14T10:14:09.062Z,20.03
2016-07-14T10:15:09.081Z,19.77
2016-07-14T10:16:09.104Z,19.74
2016-07-14T10:17:09.134Z,19.63
2016-07-14T10:18:09.140Z,19.66
2016-07-14T10:19:09.160Z,19.84
2016-07-14T10:20:09.197Z,20.02
2016-07-14T10:21:09.210Z,20.14
2016-07-14T10:22:09.227Z,20.43
2016-07-14T10:23:09.255Z,20.43
2016-07-14T10:24:09.274Z,20.43
2016-07-14T10:25:09.291Z,20.36
2016-07-14T10:26:09.309Z,20.41
2016-07-14T10:27:09.325Z,20.4
2016-07-14T10:28:09.354Z,20.39
2016-07-14T10:29:09.379Z,20.51
2016-07-14T10:30:09.407Z,20.65
2016-07-14T10:31:09.420Z,20.52
2016-07-14T10:32:09.434Z,20.41
2016-07-14T10:33:09.459Z,20.19
2016-07-14T10:34:09.482Z,19.92
2016-07-14T10:35:09.505Z,19.73
2016-07-14T10:36:09.526Z,19.54
2016-07-14T10:37:09.550Z,19.49
2016-07-14T10:38:09.567Z,19.39
2016-07-14T10:39:09.588Z,19.29
2016-07-14T10:40:09.608Z,19.33
2016-07-14T10:41:09.619Z,19.48
2016-07-14T10:42:09.649Z,19.36
2016-07-14T10:43:09.669Z,19.31
2016-07-14T10:44:09.682Z,19.12
2016-07-14T10:45:09.712Z,19.14
2016-07-14T10:46:09.728Z,19.12
2016-07-14T10:47:09.760Z,19.19
2016-07-14T10:48:09.767Z,19.12
2016-07-14T10:49:09.790Z,19.12
2016-07-14T10:50:09.809Z,19.18
2016-07-14T10:51:09.827Z,19.16
2016-07-14T10:52:09.856Z,19.39
2016-07-14T10:53:09.875Z,19.51
2016-07-14T10:54:09.897Z,19.66
2016-07-14T10:55:09.915Z,19.92
2016-07-14T10:56:09.932Z,19.89
2016-07-14T10:57:09.957Z,19.92
2016-07-14T10:58:09.988Z,19.88
2016-07-14T10:59:10.004Z,20.04
2016-07-14T11:00:10.012Z,20.07
2016-07-14T11:01:10.044Z,20.14
2016-07-14T11:02:10.059Z,20.09
2016-07-14T11:03:10.078Z,20.19
2016-07-14T11:04:10.102Z,20.22
2016-07-14T11:05:10.127Z,20.37
2016-07-14T11:06:10.146Z,20.63
2016-07-14T11:07:10.158Z,20.7
2016-07-14T11:08:10.182Z,20.77
2016-07-14T11:09:10.218Z,20.8
2016-07-14T11:10:10.237Z,20.85
2016-07-14T11:11:10.249Z,20.9
2016-07-14T11:12:10.275Z,20.81
2016-07-14T11:13:10.298Z,20.67
2016-07-14T11:14:10.315Z,20.7
2016-07-14T11:15:10.331Z,20.85
2016-07-14T11:16:10.353Z,20.82
2016-07-14T11:17:10.369Z,20.88
2016-07-14T11:18:10.401Z,20.95
2016-07-14T11:19:10.419Z,20.88
2016-07-14T11:20:10.432Z,20.81
2016-07-14T11:21:10.465Z,20.58
2016-07-14T11:22:10.486Z,20.43
2016-07-14T11:23:10.508Z,20.28
2016-07-14T11:24:10.527Z,20.28
2016-07-14T11:25:10.545Z,20.39
2016-07-14T11:26:10.571Z,20.34
2016-07-14T11:27:10.588Z,20.34
2016-07-14T11:28:10.615Z,20.41
2016-07-14T11:29:10.629Z,20.51
2016-07-14T11:30:10.667Z,20.62
2016-07-14T11:31:10.673Z,20.52
2016-07-14T11:32:10.692Z,20.69
2016-07-14T11:33:10.721Z,20.48
2016-07-14T11:34:10.735Z,20.56
2016-07-14T11:35:10.759Z,20.55
2016-07-14T11:36:10.782Z,20.56
2016-07-14T11:37:10.796Z,20.52
2016-07-14T11:38:10.816Z,20.66
2016-07-14T11:39:10.848Z,20.67
2016-07-14T11:40:10.861Z,20.72
2016-07-14T11:41:10.896Z,20.7
2016-07-14T11:42:10.919Z,20.56
2016-07-14T11:43:10.923Z,20.34
2016-07-14T11:44:10.946Z,20.36
2016-07-14T11:45:10.966Z,20.19
2016-07-14T11:46:10.995Z,20.19
2016-07-14T11:47:11.012Z,20.29
2016-07-14T11:48:11.035Z,20.37
2016-07-14T11:49:11.070Z,20.25
2016-07-14T11:50:11.077Z,20.32
2016-07-14T11:51:11.095Z,20.55
2016-07-14T11:52:11.119Z,20.63
2016-07-14T11:53:11.143Z,20.7
2016-07-14T11:54:11.162Z,20.67
2016-07-14T11:55:11.176Z,20.55
2016-07-14T11:56:11.199Z,20.31
2016-07-14T11:57:11.230Z,20.41
2016-07-14T11:58:11.248Z,20.62
2016-07-14T11:59:11.260Z,20.63
2016-07-14T12:00:11.306Z,20.5
2016-07-14T12:01:11.303Z,20.55
2016-07-14T12:02:11.338Z,20.55
2016-07-14T12:03:11.348Z,20.43
2016-07-14T12:04:11.366Z,20.6
2016-07-14T12:05:11.398Z,20.63
2016-07-14T12:06:11.415Z,20.55
2016-07-14T12:08:11.449Z,20.82
2016-07-14T12:09:11.484Z,21
2016-07-14T12:10:11.502Z,21.27
2016-07-14T12:11:11.531Z,21.43
2016-07-14T12:12:11.540Z,21.43
2016-07-14T12:13:11.564Z,21.61
2016-07-14T12:14:11.586Z,21.52
2016-07-14T12:15:11.607Z,21.4
2016-07-14T12:16:11.625Z,21.27
2016-07-14T12:17:11.651Z,21.32
2016-07-14T12:18:11.680Z,21.43
2016-07-14T12:19:11.691Z,21.39
2016-07-14T12:20:11.709Z,21.55
2016-07-14T12:21:11.736Z,21.69
2016-07-14T12:22:11.760Z,21.82
2016-07-14T12:23:11.787Z,21.67
2016-07-14T12:24:11.794Z,21.72
2016-07-14T12:25:11.818Z,21.62
2016-07-14T12:26:11.844Z,21.72
2016-07-14T12:27:11.867Z,21.75
2016-07-14T12:28:11.893Z,21.79
2016-07-14T12:29:11.907Z,21.69
2016-07-14T12:30:11.923Z,21.62
2016-07-14T12:31:11.972Z,21.5
2016-07-14T12:32:11.975Z,21.6
2016-07-14T12:33:12.000Z,21.79
2016-07-14T12:34:12.013Z,22.08
2016-07-14T12:35:12.044Z,22.38
2016-07-14T12:36:12.070Z,22.57
2016-07-14T12:37:12.088Z,22.81
2016-07-14T12:38:12.108Z,23.12
2016-07-14T12:39:12.131Z,23.28
2016-07-14T12:40:12.144Z,22.96
2016-07-14T12:41:12.175Z,23.05
2016-07-14T12:42:12.210Z,22.91
2016-07-14T12:43:12.216Z,22.81
2016-07-14T12:44:12.246Z,22.75
2016-07-14T12:45:12.265Z,22.72
2016-07-14T12:46:12.283Z,22.44
2016-07-14T12:47:12.314Z,22.13
2016-07-14T12:48:12.330Z,21.93
2016-07-14T12:49:12.356Z,21.77
2016-07-14T12:50:12.372Z,21.79
2016-07-14T12:51:12.407Z,21.75
2016-07-14T12:52:12.418Z,21.67
2016-07-14T12:53:12.440Z,21.52
2016-07-14T12:54:12.465Z,21.5
2016-07-14T12:55:12.481Z,21.48
2016-07-14T12:56:12.510Z,21.27
2016-07-14T12:57:12.526Z,21.15
2016-07-14T12:58:12.556Z,21.05
2016-07-14T12:59:12.572Z,21.02
2016-07-14T13:00:12.590Z,21.12
2016-07-14T13:01:12.621Z,21.27
2016-07-14T13:02:12.638Z,21.57